createdAt,value
2019-03-29T00:00:56.422Z,102558.65
2019-03-29T00:03:29.800Z,102556.52
2019-03-29T00:06:03.263Z,102558.65
2019-03-29T00:08:36.629Z,102558.67
2019-03-29T00:11:10.082Z,102550.54
2019-03-29T00:13:43.543Z,102556.98
2019-03-29T00:16:16.880Z,102552.71
2019-03-29T00:18:50.337Z,102546.29
2019-03-29T00:21:23.721Z,102547.56
2019-03-29T00:24:06.670Z,102553.59
2019-03-29T00:26:32.231Z,102552.30
2019-03-29T00:29:07.090Z,102556.56
2019-03-29T00:31:40.497Z,102556.56
2019-03-29T00:34:13.889Z,102552.75
2019-03-29T00:36:48.204Z,102550.58
2019-03-29T00:39:21.546Z,102552.73
2019-03-29T00:41:54.998Z,102550.61
2019-03-29T00:44:28.434Z,102541.20
2019-03-29T00:47:01.749Z,102547.19
2019-03-29T00:49:35.226Z,102536.06
2019-03-29T00:52:08.578Z,102543.75
2019-03-29T00:54:41.973Z,102541.20
2019-03-29T00:57:15.410Z,102536.48
2019-03-29T00:59:48.856Z,102537.78
2019-03-29T01:02:22.253Z,102532.19
2019-03-29T01:04:55.597Z,102533.48
2019-03-29T01:07:28.966Z,102536.48
2019-03-29T01:10:02.389Z,102536.09
2019-03-29T01:12:35.772Z,102530.95
2019-03-29T01:15:09.905Z,102527.08
2019-03-29T01:17:43.389Z,102522.36
2019-03-29T01:20:16.933Z,102527.52
2019-03-29T01:22:50.260Z,102518.11
2019-03-29T01:25:23.707Z,102520.25
2019-03-29T01:27:57.126Z,102523.67
2019-03-29T01:30:30.499Z,102521.53
2019-03-29T01:33:03.817Z,102524.52
2019-03-29T01:35:37.254Z,102523.69
2019-03-29T01:38:21.189Z,102524.53
2019-03-29T01:40:45.894Z,102524.52
2019-03-29T01:43:19.253Z,102516.41
2019-03-29T01:45:52.657Z,102517.69
2019-03-29T01:48:26.143Z,102514.69
2019-03-29T01:50:59.585Z,102514.70
2019-03-29T01:53:32.973Z,102512.98
2019-03-29T01:56:06.383Z,102502.29
2019-03-29T01:58:39.730Z,102512.55
2019-03-29T02:01:13.246Z,102511.27
2019-03-29T02:03:46.632Z,102514.27
2019-03-29T02:06:20.353Z,102509.14
2019-03-29T02:08:53.819Z,102511.29
2019-03-29T02:11:27.258Z,102500.58
2019-03-29T02:14:00.634Z,102508.28
2019-03-29T02:16:33.963Z,102501.88
2019-03-29T02:19:07.336Z,102500.17
2019-03-29T02:21:40.670Z,102496.75
2019-03-29T02:24:14.219Z,102497.19
2019-03-29T02:26:47.537Z,102496.73
2019-03-29T02:29:20.974Z,102495.45
2019-03-29T02:31:54.360Z,102490.31
2019-03-29T02:34:27.812Z,102491.18
2019-03-29T02:37:02.284Z,102485.18
2019-03-29T02:39:36.178Z,102483.48
2019-03-29T02:42:09.601Z,102483.47
2019-03-29T02:44:42.994Z,102487.77
2019-03-29T02:47:16.453Z,102493.77
2019-03-29T02:49:49.815Z,102483.90
2019-03-29T02:52:23.211Z,102480.50
2019-03-29T02:54:56.637Z,102485.20
2019-03-29T02:57:30.062Z,102482.20
2019-03-29T03:00:05.085Z,102485.62
2019-03-29T03:02:38.520Z,102485.20
2019-03-29T03:05:12.141Z,102479.22
2019-03-29T03:07:45.639Z,102485.23
2019-03-29T03:10:19.218Z,102481.37
2019-03-29T03:12:52.666Z,102485.64
2019-03-29T03:15:26.133Z,102482.64
2019-03-29T03:17:59.587Z,102477.50
2019-03-29T03:20:33.046Z,102471.94
2019-03-29T03:23:06.566Z,102474.50
2019-03-29T03:25:39.960Z,102480.08
2019-03-29T03:28:13.395Z,102471.11
2019-03-29T03:30:46.870Z,102474.13
2019-03-29T03:33:20.368Z,102468.13
2019-03-29T03:35:53.891Z,102468.55
2019-03-29T03:38:27.312Z,102468.98
2019-03-29T03:41:00.899Z,102471.96
2019-03-29T03:43:34.317Z,102465.14
2019-03-29T03:46:07.844Z,102469.00
2019-03-29T03:48:41.347Z,102469.41
2019-03-29T03:51:15.083Z,102467.70
2019-03-29T03:53:48.501Z,102470.69
2019-03-29T03:56:22.007Z,102471.53
2019-03-29T03:58:55.956Z,102468.96
2019-03-29T04:01:29.419Z,102477.53
2019-03-29T04:04:02.872Z,102472.39
2019-03-29T04:06:36.266Z,102468.96
2019-03-29T04:09:09.684Z,102468.95
2019-03-29T04:11:43.157Z,102463.83
2019-03-29T04:14:16.615Z,102465.97
2019-03-29T04:16:50.121Z,102455.27
2019-03-29T04:19:23.579Z,102454.86
2019-03-29T04:21:57.099Z,102454.44
2019-03-29T04:24:30.536Z,102458.73
2019-03-29T04:27:03.966Z,102455.73
2019-03-29T04:29:37.415Z,102452.73
2019-03-29T04:32:10.894Z,102457.42
2019-03-29T04:34:44.421Z,102460.42
2019-03-29T04:37:18.056Z,102460.42
2019-03-29T04:40:06.375Z,102465.58
2019-03-29T04:42:26.696Z,102460.44
2019-03-29T04:45:00.494Z,102464.73
2019-03-29T04:47:34.034Z,102469.43
2019-03-29T04:50:07.595Z,102460.87
2019-03-29T04:52:41.131Z,102465.57
2019-03-29T04:55:14.736Z,102466.44
2019-03-29T04:57:48.202Z,102469.87
2019-03-29T05:00:21.651Z,102470.28
2019-03-29T05:02:55.038Z,102472.83
2019-03-29T05:05:28.640Z,102476.28
2019-03-29T05:08:02.070Z,102470.70
2019-03-29T05:10:35.587Z,102477.55
2019-03-29T05:13:09.364Z,102470.27
2019-03-29T05:15:42.871Z,102465.56
2019-03-29T05:18:16.355Z,102475.83
2019-03-29T05:20:49.833Z,102471.13
2019-03-29T05:23:23.232Z,102469.43
2019-03-29T05:25:56.645Z,102465.98
2019-03-29T05:28:30.249Z,102469.41
2019-03-29T05:31:03.694Z,102467.70
2019-03-29T05:33:37.094Z,102466.84
2019-03-29T05:36:10.471Z,102470.67
2019-03-29T05:38:43.962Z,102465.98
2019-03-29T05:41:17.362Z,102470.69
2019-03-29T05:43:50.842Z,102466.43
2019-03-29T05:46:24.257Z,102470.24
2019-03-29T05:48:57.754Z,102474.96
2019-03-29T05:51:31.099Z,102470.28
2019-03-29T05:54:04.727Z,102470.24
2019-03-29T05:56:38.249Z,102461.71
2019-03-29T05:59:11.781Z,102466.39
2019-03-29T06:01:45.207Z,102465.95
2019-03-29T06:04:18.777Z,102458.68
2019-03-29T06:06:52.199Z,102464.66
2019-03-29T06:09:25.808Z,102467.23
2019-03-29T06:11:59.320Z,102459.09
2019-03-29T06:14:32.900Z,102462.94
2019-03-29T06:17:06.345Z,102468.07
2019-03-29T06:19:39.844Z,102467.61
2019-03-29T06:22:13.263Z,102466.75
2019-03-29T06:24:46.763Z,102460.33
2019-03-29T06:27:20.248Z,102461.64
2019-03-29T06:29:53.783Z,102462.05
2019-03-29T06:32:27.155Z,102459.86
2019-03-29T06:35:01.138Z,102454.70
2019-03-29T06:37:35.649Z,102456.83
2019-03-29T06:40:12.213Z,102455.95
2019-03-29T06:42:45.694Z,102443.94
2019-03-29T06:45:19.179Z,102442.17
2019-03-29T06:47:52.669Z,102448.98
2019-03-29T06:50:26.158Z,102448.97
2019-03-29T06:52:59.685Z,102443.73
2019-03-29T06:55:33.165Z,102445.86
2019-03-29T06:58:06.666Z,102440.77
2019-03-29T07:00:40.109Z,102438.98
2019-03-29T07:03:13.537Z,102444.09
2019-03-29T07:05:47.087Z,102440.24
2019-03-29T07:08:20.541Z,102448.08
2019-03-29T07:10:53.951Z,102444.94
2019-03-29T07:13:27.295Z,102445.32
2019-03-29T07:16:00.770Z,102441.71
2019-03-29T07:18:34.235Z,102446.77
2019-03-29T07:21:20.953Z,102446.09
2019-03-29T07:23:42.986Z,102447.28
2019-03-29T07:26:16.350Z,102446.68
2019-03-29T07:28:49.998Z,102440.66
2019-03-29T07:31:23.422Z,102435.83
2019-03-29T07:33:56.897Z,102437.92
2019-03-29T07:36:30.339Z,102436.95
2019-03-29T07:39:05.079Z,102435.88
2019-03-29T07:41:38.501Z,102431.67
2019-03-29T07:44:11.988Z,102434.14
2019-03-29T07:46:45.492Z,102436.85
2019-03-29T07:49:19.001Z,102429.92
2019-03-29T07:51:52.414Z,102430.58
2019-03-29T07:54:25.958Z,102434.81
2019-03-29T07:56:59.313Z,102420.07
2019-03-29T07:59:32.824Z,102427.05
2019-03-29T08:02:06.304Z,102420.42
2019-03-29T08:04:39.829Z,102425.25
2019-03-29T08:07:26.355Z,102424.92
2019-03-29T08:09:48.831Z,102416.75
2019-03-29T08:12:22.526Z,102411.48
2019-03-29T08:14:56.049Z,102418.17
2019-03-29T08:17:29.501Z,102421.55
2019-03-29T08:20:36.660Z,102420.98
2019-03-29T08:22:38.423Z,102420.14
2019-03-29T08:25:11.900Z,102415.20
2019-03-29T08:27:45.380Z,102414.20
2019-03-29T08:30:18.914Z,102409.49
2019-03-29T08:32:52.399Z,102413.41
2019-03-29T08:35:25.806Z,102414.95
2019-03-29T08:37:59.234Z,102409.28
2019-03-29T08:40:32.692Z,102409.79
2019-03-29T08:43:06.084Z,102405.06
2019-03-29T08:45:39.551Z,102408.41
2019-03-29T08:48:13.057Z,102404.73
2019-03-29T08:50:46.579Z,102404.34
2019-03-29T08:53:20.012Z,102399.93
2019-03-29T08:55:53.482Z,102399.73
2019-03-29T08:58:26.915Z,102394.76
2019-03-29T09:01:00.463Z,102391.86
2019-03-29T09:03:33.922Z,102380.73
2019-03-29T09:06:07.470Z,102384.15
2019-03-29T09:08:40.885Z,102376.22
2019-03-29T09:11:14.339Z,102374.34
2019-03-29T09:13:47.841Z,102371.66
2019-03-29T09:16:21.295Z,102357.39
2019-03-29T09:18:54.810Z,102357.54
2019-03-29T09:21:28.285Z,102355.80
2019-03-29T09:24:01.756Z,102355.56
2019-03-29T09:26:35.307Z,102357.66
2019-03-29T09:29:08.756Z,102353.16
2019-03-29T09:31:42.294Z,102343.78
2019-03-29T09:34:15.710Z,102339.98
2019-03-29T09:36:49.204Z,102340.40
2019-03-29T09:39:22.670Z,102345.22
2019-03-29T09:41:56.323Z,102337.19
2019-03-29T09:44:29.739Z,102338.70
2019-03-29T09:47:03.170Z,102336.77
2019-03-29T09:49:36.615Z,102330.65
2019-03-29T09:52:10.186Z,102328.13
2019-03-29T09:54:43.616Z,102329.54
2019-03-29T09:57:17.010Z,102325.69
2019-03-29T09:59:50.354Z,102331.27
2019-03-29T10:02:23.821Z,102329.33
2019-03-29T10:04:57.271Z,102324.77
2019-03-29T10:07:30.775Z,102324.72
2019-03-29T10:10:05.670Z,102328.92
2019-03-29T10:12:43.668Z,102328.40
2019-03-29T10:15:14.353Z,102325.61
2019-03-29T10:17:47.814Z,102331.87
2019-03-29T10:20:21.301Z,102320.25
2019-03-29T10:22:54.776Z,102315.65
2019-03-29T10:25:28.250Z,102317.50
2019-03-29T10:28:01.722Z,102312.11
2019-03-29T10:30:46.285Z,102309.48
2019-03-29T10:33:18.054Z,102302.71
2019-03-29T10:35:52.967Z,102300.22
2019-03-29T10:38:26.758Z,102289.38
2019-03-29T10:41:00.189Z,102284.22
2019-03-29T10:43:33.781Z,102289.00
2019-03-29T10:46:07.248Z,102281.49
2019-03-29T10:48:40.699Z,102277.87
2019-03-29T10:51:14.151Z,102276.33
2019-03-29T10:53:47.632Z,102268.22
2019-03-29T10:56:33.296Z,102267.79
2019-03-29T10:58:56.313Z,102258.91
2019-03-29T11:01:29.756Z,102258.48
2019-03-29T11:04:03.192Z,102258.81
2019-03-29T11:06:36.727Z,102261.72
2019-03-29T11:09:10.088Z,102258.14
2019-03-29T11:11:43.473Z,102249.89
2019-03-29T11:14:16.891Z,102246.52
2019-03-29T11:16:50.276Z,102234.03
2019-03-29T11:19:23.690Z,102239.39
2019-03-29T11:21:57.142Z,102247.84
2019-03-29T11:24:30.576Z,102241.17
2019-03-29T11:27:04.019Z,102240.91
2019-03-29T11:29:37.462Z,102235.39
2019-03-29T11:32:10.854Z,102230.20
2019-03-29T11:34:44.285Z,102226.27
2019-03-29T11:37:17.825Z,102222.59
2019-03-29T11:39:51.256Z,102216.64
2019-03-29T11:42:24.699Z,102215.68
2019-03-29T11:44:58.115Z,102209.86
2019-03-29T11:47:31.556Z,102212.42
2019-03-29T11:50:05.862Z,102203.20
2019-03-29T11:52:39.303Z,102201.42
2019-03-29T11:55:12.660Z,102196.70
2019-03-29T11:57:46.208Z,102194.07
2019-03-29T12:00:22.726Z,102197.33
2019-03-29T12:02:56.194Z,102187.86
2019-03-29T12:05:29.539Z,102183.72
2019-03-29T12:08:03.160Z,102183.20
2019-03-29T12:10:36.660Z,102186.74
2019-03-29T12:13:10.700Z,102179.28
2019-03-29T12:15:44.116Z,102169.66
2019-03-29T12:18:17.628Z,102177.08
2019-03-29T12:20:54.181Z,102170.98
2019-03-29T12:23:26.315Z,102169.16
2019-03-29T12:25:59.710Z,102164.02
2019-03-29T12:28:33.094Z,102156.59
2019-03-29T12:31:06.814Z,102157.69
2019-03-29T12:33:40.257Z,102152.30
2019-03-29T12:36:13.625Z,102146.91
2019-03-29T12:38:47.113Z,102140.17
2019-03-29T12:41:20.483Z,102136.70
2019-03-29T12:43:55.779Z,102126.77
2019-03-29T12:46:32.200Z,102133.34
2019-03-29T12:49:04.403Z,102118.89
2019-03-29T12:51:37.908Z,102113.97
2019-03-29T12:54:12.309Z,102116.03
2019-03-29T12:56:45.878Z,102110.38
2019-03-29T12:59:19.361Z,102106.34
2019-03-29T13:01:52.815Z,102104.05
2019-03-29T13:04:26.148Z,102105.38
2019-03-29T13:06:59.641Z,102100.63
2019-03-29T13:09:33.063Z,102096.91
2019-03-29T13:12:06.614Z,102087.16
2019-03-29T13:14:39.965Z,102081.43
2019-03-29T13:17:13.526Z,102076.84
2019-03-29T13:19:46.932Z,102077.47
2019-03-29T13:22:20.417Z,102072.47
2019-03-29T13:24:53.909Z,102068.97
2019-03-29T13:27:27.354Z,102063.98
2019-03-29T13:30:00.766Z,102058.63
2019-03-29T13:32:34.308Z,102054.59
2019-03-29T13:35:08.018Z,102056.20
2019-03-29T13:37:41.372Z,102051.99
2019-03-29T13:40:14.776Z,102052.88
2019-03-29T13:42:48.219Z,102051.73
2019-03-29T13:45:21.721Z,102045.62
2019-03-29T13:47:55.166Z,102043.11
2019-03-29T13:50:28.573Z,102038.39
2019-03-29T13:53:02.320Z,102035.72
2019-03-29T13:55:35.862Z,102031.78
2019-03-29T13:58:09.299Z,102031.41
2019-03-29T14:00:42.723Z,102028.42
2019-03-29T14:03:16.213Z,102020.23
2019-03-29T14:05:49.631Z,102006.47
2019-03-29T14:08:23.148Z,102002.22
2019-03-29T14:10:56.596Z,102002.54
2019-03-29T14:13:30.046Z,102004.25
2019-03-29T14:16:03.574Z,101994.16
2019-03-29T14:18:36.943Z,101995.05
2019-03-29T14:21:10.513Z,101991.38
2019-03-29T14:23:43.912Z,101983.65
2019-03-29T14:26:17.475Z,101975.98
2019-03-29T14:28:51.372Z,101979.45
2019-03-29T14:31:25.066Z,101974.80
2019-03-29T14:33:58.597Z,101971.60
2019-03-29T14:36:32.049Z,101969.56
2019-03-29T14:39:06.674Z,101962.69
2019-03-29T14:41:40.218Z,101964.84
2019-03-29T14:44:13.635Z,101957.89
2019-03-29T14:46:47.011Z,101960.45
2019-03-29T14:49:20.526Z,101955.27
2019-03-29T14:51:53.975Z,101957.25
2019-03-29T14:54:27.323Z,101952.88
2019-03-29T14:57:01.127Z,101950.56
2019-03-29T14:59:34.473Z,101954.63
2019-03-29T15:02:07.955Z,101958.91
2019-03-29T15:04:41.374Z,101951.58
2019-03-29T15:07:14.820Z,101948.84
2019-03-29T15:09:48.540Z,101951.63
2019-03-29T15:12:21.984Z,101954.84
2019-03-29T15:15:05.464Z,101945.83
2019-03-29T15:17:30.774Z,101951.03
2019-03-29T15:20:06.526Z,101948.86
2019-03-29T15:22:40.001Z,101940.74
2019-03-29T15:25:13.419Z,101941.08
2019-03-29T15:27:46.799Z,101938.34
2019-03-29T15:30:20.327Z,101940.44
2019-03-29T15:32:53.849Z,101939.03
2019-03-29T15:35:27.308Z,101931.78
2019-03-29T15:38:00.772Z,101923.86
2019-03-29T15:40:34.297Z,101919.74
2019-03-29T15:43:07.747Z,101927.53
2019-03-29T15:45:41.100Z,101922.66
2019-03-29T15:48:14.523Z,101918.33
2019-03-29T15:50:47.877Z,101911.95
2019-03-29T15:53:21.388Z,101910.20
2019-03-29T15:55:54.931Z,101902.80
2019-03-29T15:58:29.696Z,101899.48
2019-03-29T16:01:03.199Z,101898.59
2019-03-29T16:03:36.714Z,101896.05
2019-03-29T16:06:10.151Z,101896.84
2019-03-29T16:08:43.631Z,101895.39
2019-03-29T16:11:17.448Z,101894.19
2019-03-29T16:13:50.921Z,101891.70
2019-03-29T16:16:24.401Z,101888.62
2019-03-29T16:18:57.889Z,101883.96
2019-03-29T16:21:31.326Z,101886.48
2019-03-29T16:24:04.771Z,101882.89
2019-03-29T16:26:38.250Z,101880.41
2019-03-29T16:29:11.712Z,101881.25
2019-03-29T16:31:45.131Z,101878.55
2019-03-29T16:34:18.505Z,101873.25
2019-03-29T16:36:52.013Z,101873.70
2019-03-29T16:39:25.530Z,101870.13
2019-03-29T16:41:58.978Z,101866.08
2019-03-29T16:44:32.491Z,101865.16
2019-03-29T16:47:05.917Z,101858.75
2019-03-29T16:49:39.416Z,101861.84
2019-03-29T16:52:12.754Z,101863.22
2019-03-29T16:54:46.295Z,101858.56
2019-03-29T16:57:19.750Z,101859.66
2019-03-29T16:59:53.246Z,101859.32
2019-03-29T17:02:26.755Z,101855.43
2019-03-29T17:05:00.346Z,101843.67
2019-03-29T17:07:34.119Z,101846.08
2019-03-29T17:10:07.831Z,101843.74
2019-03-29T17:12:41.378Z,101851.88
2019-03-29T17:15:15.264Z,101849.39
2019-03-29T17:17:48.681Z,101847.75
2019-03-29T17:20:22.195Z,101851.94
2019-03-29T17:22:55.621Z,101852.31
2019-03-29T17:25:29.183Z,101847.05
2019-03-29T17:28:02.521Z,101849.59
2019-03-29T17:30:38.609Z,101843.06
2019-03-29T17:33:12.091Z,101839.83
2019-03-29T17:35:45.698Z,101843.28
2019-03-29T17:38:19.144Z,101841.83
2019-03-29T17:40:52.583Z,101843.11
2019-03-29T17:43:25.990Z,101847.78
2019-03-29T17:45:59.452Z,101843.79
2019-03-29T17:48:32.893Z,101847.91
2019-03-29T17:51:06.488Z,101844.45
2019-03-29T17:53:40.042Z,101850.75
2019-03-29T17:56:13.659Z,101847.73
2019-03-29T17:58:47.182Z,101846.80
2019-03-29T18:01:20.541Z,101842.34
2019-03-29T18:03:54.074Z,101847.43
2019-03-29T18:06:27.516Z,101845.14
2019-03-29T18:09:00.909Z,101849.33
2019-03-29T18:11:34.380Z,101844.95
2019-03-29T18:14:07.806Z,101844.80
2019-03-29T18:16:41.174Z,101846.27
2019-03-29T18:19:14.621Z,101846.61
2019-03-29T18:21:48.033Z,101846.01
2019-03-29T18:24:21.485Z,101863.36
2019-03-29T18:26:54.858Z,101857.16
2019-03-29T18:29:28.308Z,101857.36
2019-03-29T18:32:01.827Z,101854.14
2019-03-29T18:34:37.685Z,101854.38
2019-03-29T18:37:11.606Z,101853.82
2019-03-29T18:39:45.608Z,101858.09
2019-03-29T18:42:18.954Z,101861.12
2019-03-29T18:44:52.399Z,101858.74
2019-03-29T18:47:25.970Z,101860.69
2019-03-29T18:49:59.352Z,101863.42
2019-03-29T18:52:33.270Z,101855.91
2019-03-29T18:55:07.315Z,101857.34
2019-03-29T18:57:40.758Z,101861.45
2019-03-29T19:00:14.516Z,101858.19
2019-03-29T19:02:47.956Z,101863.03
2019-03-29T19:05:25.635Z,101858.87
2019-03-29T19:07:59.110Z,101860.29
2019-03-29T19:10:32.630Z,101862.15
2019-03-29T19:13:06.182Z,101852.84
2019-03-29T19:15:39.726Z,101861.13
2019-03-29T19:18:13.257Z,101857.48
2019-03-29T19:20:46.703Z,101853.83
2019-03-29T19:23:20.641Z,101855.59
2019-03-29T19:25:54.080Z,101861.69
2019-03-29T19:28:27.600Z,101860.52
2019-03-29T19:31:01.141Z,101863.63
2019-03-29T19:33:34.683Z,101861.61
2019-03-29T19:36:08.620Z,101858.67
2019-03-29T19:38:42.317Z,101863.91
2019-03-29T19:41:15.964Z,101858.47
2019-03-29T19:43:51.563Z,101859.47
2019-03-29T19:46:25.496Z,101860.84
2019-03-29T19:48:59.036Z,101864.75
2019-03-29T19:51:33.107Z,101850.66
2019-03-29T19:54:07.869Z,101854.13
2019-03-29T19:56:41.916Z,101851.63
2019-03-29T19:59:15.354Z,101851.27
2019-03-29T20:01:49.068Z,101852.62
2019-03-29T20:04:22.491Z,101848.91
2019-03-29T20:06:56.208Z,101850.23
2019-03-29T20:09:29.781Z,101849.83
2019-03-29T20:12:03.302Z,101850.28
2019-03-29T20:14:36.850Z,101846.92
2019-03-29T20:17:10.325Z,101842.27
2019-03-29T20:19:43.740Z,101844.01
2019-03-29T20:22:17.143Z,101849.20
2019-03-29T20:24:50.709Z,101842.40
2019-03-29T20:27:24.308Z,101833.47
2019-03-29T20:29:57.810Z,101842.05
2019-03-29T20:32:31.293Z,101843.81
2019-03-29T20:35:06.101Z,101843.87
2019-03-29T20:37:39.539Z,101840.10
2019-03-29T20:40:13.015Z,101833.73
2019-03-29T20:42:46.527Z,101835.88
2019-03-29T20:45:19.929Z,101829.08
2019-03-29T20:47:53.491Z,101835.10
2019-03-29T20:50:27.056Z,101833.38
2019-03-29T20:53:00.497Z,101829.98
2019-03-29T20:55:33.876Z,101825.75
2019-03-29T20:58:07.327Z,101825.77
2019-03-29T21:00:40.906Z,101822.38
2019-03-29T21:03:14.505Z,101826.68
2019-03-29T21:05:47.973Z,101821.99
2019-03-29T21:08:21.392Z,101821.17
2019-03-29T21:10:56.502Z,101822.45
2019-03-29T21:13:30.292Z,101825.88
2019-03-29T21:16:03.728Z,101827.59
2019-03-29T21:18:37.255Z,101823.37
2019-03-29T21:21:10.730Z,101822.95
2019-03-29T21:23:47.092Z,101814.88
2019-03-29T21:26:19.297Z,101817.44
2019-03-29T21:28:53.152Z,101820.00
2019-03-29T21:31:26.818Z,101817.88
2019-03-29T21:34:00.400Z,101820.85
2019-03-29T21:36:33.897Z,101820.89
2019-03-29T21:39:09.230Z,101817.48
2019-03-29T21:41:42.792Z,101815.34
2019-03-29T21:44:16.206Z,101814.52
2019-03-29T21:46:49.900Z,101811.09
2019-03-29T21:49:23.384Z,101805.14
2019-03-29T21:51:56.945Z,101807.28
2019-03-29T21:54:30.427Z,101802.17
2019-03-29T21:57:03.950Z,101803.86
2019-03-29T21:59:37.420Z,101804.28
2019-03-29T22:02:10.926Z,101803.86
2019-03-29T22:04:44.616Z,101801.27
2019-03-29T22:07:18.074Z,101803.80
2019-03-29T22:09:51.530Z,101801.66
2019-03-29T22:12:24.973Z,101802.09
2019-03-29T22:14:58.535Z,101794.02
2019-03-29T22:17:32.185Z,101795.70
2019-03-29T22:20:10.373Z,101788.42
2019-03-29T22:22:43.861Z,101786.70
2019-03-29T22:25:17.565Z,101788.78
2019-03-29T22:27:51.391Z,101791.75
2019-03-29T22:30:24.796Z,101784.93
2019-03-29T22:32:58.418Z,101787.50
2019-03-29T22:35:31.823Z,101794.29
2019-03-29T22:38:05.314Z,101783.17
2019-03-29T22:40:38.709Z,101783.14
2019-03-29T22:43:12.120Z,101783.95
2019-03-29T22:45:46.018Z,101780.95
2019-03-29T22:48:19.456Z,101786.03
2019-03-29T22:50:52.793Z,101780.16
2019-03-29T22:53:26.436Z,101774.68
2019-03-29T22:55:59.997Z,101771.66
2019-03-29T22:58:33.646Z,101770.38
2019-03-29T23:01:07.247Z,101770.38
2019-03-29T23:03:41.057Z,101779.72
2019-03-29T23:06:14.483Z,101770.38
2019-03-29T23:08:47.938Z,101765.27
2019-03-29T23:11:21.529Z,101767.38
2019-03-29T23:13:54.970Z,101764.73
2019-03-29T23:16:30.370Z,101769.37
2019-03-29T23:19:06.887Z,101769.33
2019-03-29T23:21:38.884Z,101775.22
2019-03-29T23:24:12.447Z,101771.33
2019-03-29T23:26:45.921Z,101765.83
2019-03-29T23:29:19.351Z,101759.04
2019-03-29T23:31:52.953Z,101759.06
2019-03-29T23:34:26.448Z,101758.66
2019-03-29T23:36:59.879Z,101760.78
2019-03-29T23:39:33.249Z,101762.03
2019-03-29T23:42:06.854Z,101754.79
2019-03-29T23:44:40.256Z,101746.73
2019-03-29T23:47:13.756Z,101744.16
2019-03-29T23:49:47.218Z,101747.55
2019-03-29T23:52:20.630Z,101736.09
2019-03-29T23:54:54.138Z,101736.55
2019-03-29T23:57:27.544Z,101731.85
